sensor_id;sensor_type;location;lat;lon;timestamp;temperature;humidity
6958;DHT22;50346;51.268;15.942;2022-08-19T00:22:15;24.80;1.00
6958;DHT22;50346;51.268;15.942;2022-08-19T00:24:46;24.70;1.00
6958;DHT22;50346;51.268;15.942;2022-08-19T00:27:12;24.60;1.00
6958;DHT22;50346;51.268;15.942;2022-08-19T00:29:38;24.50;99.90
6958;DHT22;50346;51.268;15.942;2022-08-19T00:32:04;24.40;1.00
6958;DHT22;50346;51.268;15.942;2022-08-19T00:34:30;24.30;99.90
6958;DHT22;50346;51.268;15.942;2022-08-19T00:36:57;24.20;2.70
6958;DHT22;50346;51.268;15.942;2022-08-19T00:39:23;24.10;99.90
6958;DHT22;50346;51.268;15.942;2022-08-19T00:41:50;24.10;1.00
6958;DHT22;50346;51.268;15.942;2022-08-19T00:44:22;24.00;1.00
6958;DHT22;50346;51.268;15.942;2022-08-19T00:46:49;23.90;99.90
6958;DHT22;50346;51.268;15.942;2022-08-19T00:51:55;23.80;99.90
6958;DHT22;50346;51.268;15.942;2022-08-19T00:54:22;23.80;99.90
6958;DHT22;50346;51.268;15.942;2022-08-19T00:56:49;23.80;99.90
6958;DHT22;50346;51.268;15.942;2022-08-19T00:59:16;23.70;99.90
6958;DHT22;50346;51.268;15.942;2022-08-19T01:01:43;23.60;99.90
6958;DHT22;50346;51.268;15.942;2022-08-19T01:04:09;23.60;1.00
6958;DHT22;50346;51.268;15.942;2022-08-19T01:06:36;23.60;1.00
6958;DHT22;50346;51.268;15.942;2022-08-19T01:13:57;23.40;99.90
6958;DHT22;50346;51.268;15.942;2022-08-19T01:16:25;23.40;99.90
6958;DHT22;50346;51.268;15.942;2022-08-19T01:18:51;23.40;99.90
6958;DHT22;50346;51.268;15.942;2022-08-19T01:21:40;23.40;1.00
6958;DHT22;50346;51.268;15.942;2022-08-19T01:26:40;23.30;14.70
6958;DHT22;50346;51.268;15.942;2022-08-19T01:29:07;23.30;1.00
6958;DHT22;50346;51.268;15.942;2022-08-19T01:31:33;23.20;99.90
6958;DHT22;50346;51.268;15.942;2022-08-19T01:36:42;23.10;1.00
6958;DHT22;50346;51.268;15.942;2022-08-19T01:39:13;23.10;1.00
6958;DHT22;50346;51.268;15.942;2022-08-19T01:41:39;23.10;99.90
6958;DHT22;50346;51.268;15.942;2022-08-19T01:44:06;23.00;99.90
6958;DHT22;50346;51.268;15.942;2022-08-19T01:46:33;23.00;1.00
6958;DHT22;50346;51.268;15.942;2022-08-19T01:48:59;23.00;1.00
6958;DHT22;50346;51.268;15.942;2022-08-19T01:51:26;22.90;1.00
6958;DHT22;50346;51.268;15.942;2022-08-19T01:53:52;22.90;1.00
6958;DHT22;50346;51.268;15.942;2022-08-19T01:56:18;22.80;50.80
6958;DHT22;50346;51.268;15.942;2022-08-19T01:58:52;22.80;96.00
6958;DHT22;50346;51.268;15.942;2022-08-19T02:01:18;22.80;99.90
6958;DHT22;50346;51.268;15.942;2022-08-19T02:03:44;22.80;99.90
6958;DHT22;50346;51.268;15.942;2022-08-19T02:06:11;22.70;99.90
6958;DHT22;50346;51.268;15.942;2022-08-19T02:08:38;22.70;99.90
6958;DHT22;50346;51.268;15.942;2022-08-19T02:11:05;22.70;99.90
6958;DHT22;50346;51.268;15.942;2022-08-19T02:13:32;22.60;99.90
6958;DHT22;50346;51.268;15.942;2022-08-19T02:15:57;22.60;99.90
6958;DHT22;50346;51.268;15.942;2022-08-19T02:18:23;22.60;99.90
6958;DHT22;50346;51.268;15.942;2022-08-19T02:20:49;22.50;99.90
6958;DHT22;50346;51.268;15.942;2022-08-19T02:23:16;22.50;99.90
6958;DHT22;50346;51.268;15.942;2022-08-19T02:25:44;22.50;99.90
6958;DHT22;50346;51.268;15.942;2022-08-19T02:28:10;22.50;99.90
6958;DHT22;50346;51.268;15.942;2022-08-19T02:30:37;22.40;99.90
6958;DHT22;50346;51.268;15.942;2022-08-19T02:33:04;22.40;99.90
6958;DHT22;50346;51.268;15.942;2022-08-19T02:35:30;22.40;99.90
6958;DHT22;50346;51.268;15.942;2022-08-19T02:37:56;22.40;1.00
6958;DHT22;50346;51.268;15.942;2022-08-19T02:40:40;22.40;1.00
6958;DHT22;50346;51.268;15.942;2022-08-19T02:43:07;22.40;1.00
6958;DHT22;50346;51.268;15.942;2022-08-19T02:45:38;22.40;1.00
6958;DHT22;50346;51.268;15.942;2022-08-19T02:55:24;22.20;1.00
6958;DHT22;50346;51.268;15.942;2022-08-19T02:57:49;22.30;1.00
6958;DHT22;50346;51.268;15.942;2022-08-19T03:00:16;22.20;1.00
6958;DHT22;50346;51.268;15.942;2022-08-19T03:02:41;22.20;1.00
6958;DHT22;50346;51.268;15.942;2022-08-19T03:12:27;22.10;1.00
6958;DHT22;50346;51.268;15.942;2022-08-19T03:14:52;22.20;1.00
6958;DHT22;50346;51.268;15.942;2022-08-19T03:17:18;22.10;1.00
6958;DHT22;50346;51.268;15.942;2022-08-19T03:19:44;22.10;1.00
6958;DHT22;50346;51.268;15.942;2022-08-19T03:22:10;22.10;1.00
6958;DHT22;50346;51.268;15.942;2022-08-19T03:24:36;22.10;1.00
6958;DHT22;50346;51.268;15.942;2022-08-19T03:41:48;22.00;1.00
6958;DHT22;50346;51.268;15.942;2022-08-19T03:44:18;22.00;1.00
6958;DHT22;50346;51.268;15.942;2022-08-19T03:46:48;21.90;1.00
6958;DHT22;50346;51.268;15.942;2022-08-19T03:49:14;21.90;1.00
6958;DHT22;50346;51.268;15.942;2022-08-19T03:51:42;21.90;1.00
6958;DHT22;50346;51.268;15.942;2022-08-19T03:54:11;21.90;1.00
6958;DHT22;50346;51.268;15.942;2022-08-19T03:56:39;21.80;1.00
6958;DHT22;50346;51.268;15.942;2022-08-19T03:59:07;21.80;1.00
6958;DHT22;50346;51.268;15.942;2022-08-19T04:01:34;21.80;1.00
6958;DHT22;50346;51.268;15.942;2022-08-19T04:04:00;21.80;1.00
6958;DHT22;50346;51.268;15.942;2022-08-19T04:06:30;21.70;1.00
6958;DHT22;50346;51.268;15.942;2022-08-19T04:08:57;21.70;1.00
6958;DHT22;50346;51.268;15.942;2022-08-19T04:11:33;21.70;1.00
6958;DHT22;50346;51.268;15.942;2022-08-19T04:13:59;21.70;1.00
6958;DHT22;50346;51.268;15.942;2022-08-19T04:16:26;21.70;1.00
6958;DHT22;50346;51.268;15.942;2022-08-19T04:18:56;21.70;1.00
6958;DHT22;50346;51.268;15.942;2022-08-19T04:21:24;21.70;1.00
6958;DHT22;50346;51.268;15.942;2022-08-19T04:23:51;21.70;1.00
6958;DHT22;50346;51.268;15.942;2022-08-19T04:26:20;21.70;1.00
6958;DHT22;50346;51.268;15.942;2022-08-19T04:28:46;21.60;1.00
6958;DHT22;50346;51.268;15.942;2022-08-19T04:31:15;21.70;1.00
6958;DHT22;50346;51.268;15.942;2022-08-19T04:33:42;21.60;1.00
6958;DHT22;50346;51.268;15.942;2022-08-19T04:36:07;21.60;1.00
6958;DHT22;50346;51.268;15.942;2022-08-19T04:38:35;21.60;1.00
6958;DHT22;50346;51.268;15.942;2022-08-19T04:41:02;21.60;1.00
6958;DHT22;50346;51.268;15.942;2022-08-19T04:43:47;21.60;1.00
6958;DHT22;50346;51.268;15.942;2022-08-19T04:46:15;21.60;1.00
6958;DHT22;50346;51.268;15.942;2022-08-19T04:48:43;21.60;1.00
6958;DHT22;50346;51.268;15.942;2022-08-19T04:51:11;21.50;1.00
6958;DHT22;50346;51.268;15.942;2022-08-19T04:53:39;21.60;1.00
6958;DHT22;50346;51.268;15.942;2022-08-19T04:56:16;21.60;1.00
6958;DHT22;50346;51.268;15.942;2022-08-19T04:58:44;21.70;1.00
6958;DHT22;50346;51.268;15.942;2022-08-19T05:01:12;21.70;1.00
6958;DHT22;50346;51.268;15.942;2022-08-19T05:03:39;21.80;1.00
6958;DHT22;50346;51.268;15.942;2022-08-19T05:06:12;21.80;1.00
6958;DHT22;50346;51.268;15.942;2022-08-19T05:08:39;21.90;1.00
6958;DHT22;50346;51.268;15.942;2022-08-19T05:11:30;21.90;1.00
6958;DHT22;50346;51.268;15.942;2022-08-19T05:13:57;21.90;1.00
6958;DHT22;50346;51.268;15.942;2022-08-19T05:16:24;21.90;1.00
6958;DHT22;50346;51.268;15.942;2022-08-19T05:18:50;21.90;1.00
6958;DHT22;50346;51.268;15.942;2022-08-19T05:21:34;21.80;1.00
6958;DHT22;50346;51.268;15.942;2022-08-19T05:24:20;21.90;1.00
6958;DHT22;50346;51.268;15.942;2022-08-19T05:26:48;21.90;1.00
6958;DHT22;50346;51.268;15.942;2022-08-19T05:29:15;22.10;1.00
6958;DHT22;50346;51.268;15.942;2022-08-19T05:31:42;22.10;1.00
6958;DHT22;50346;51.268;15.942;2022-08-19T05:34:09;22.10;1.00
6958;DHT22;50346;51.268;15.942;2022-08-19T05:36:41;22.10;1.00
6958;DHT22;50346;51.268;15.942;2022-08-19T05:39:18;22.20;1.00
6958;DHT22;50346;51.268;15.942;2022-08-19T05:41:57;22.20;1.00
6958;DHT22;50346;51.268;15.942;2022-08-19T05:44:29;22.20;1.00
6958;DHT22;50346;51.268;15.942;2022-08-19T05:47:00;22.30;1.00
6958;DHT22;50346;51.268;15.942;2022-08-19T05:49:26;22.30;1.00
6958;DHT22;50346;51.268;15.942;2022-08-19T05:51:53;22.30;1.00
6958;DHT22;50346;51.268;15.942;2022-08-19T06:14:13;22.80;99.90
6958;DHT22;50346;51.268;15.942;2022-08-19T06:16:40;22.80;99.90
6958;DHT22;50346;51.268;15.942;2022-08-19T06:19:08;22.90;99.90
6958;DHT22;50346;51.268;15.942;2022-08-19T06:21:35;22.90;99.90
6958;DHT22;50346;51.268;15.942;2022-08-19T06:24:07;23.00;99.90
6958;DHT22;50346;51.268;15.942;2022-08-19T06:26:40;23.00;99.90
6958;DHT22;50346;51.268;15.942;2022-08-19T06:29:08;23.10;99.90
6958;DHT22;50346;51.268;15.942;2022-08-19T06:31:34;23.10;90.70
6958;DHT22;50346;51.268;15.942;2022-08-19T06:34:02;23.20;21.90
6958;DHT22;50346;51.268;15.942;2022-08-19T06:36:35;23.30;1.00
6958;DHT22;50346;51.268;15.942;2022-08-19T06:39:06;23.30;1.00
6958;DHT22;50346;51.268;15.942;2022-08-19T06:41:38;23.30;1.00
6958;DHT22;50346;51.268;15.942;2022-08-19T06:44:04;23.30;1.00
6958;DHT22;50346;51.268;15.942;2022-08-19T06:46:30;23.40;1.00
6958;DHT22;50346;51.268;15.942;2022-08-19T06:48:57;23.40;1.00
6958;DHT22;50346;51.268;15.942;2022-08-19T06:51:23;23.40;1.00
6958;DHT22;50346;51.268;15.942;2022-08-19T06:53:51;23.50;1.00
6958;DHT22;50346;51.268;15.942;2022-08-19T06:56:22;23.60;99.90
6958;DHT22;50346;51.268;15.942;2022-08-19T06:58:48;23.60;99.90
6958;DHT22;50346;51.268;15.942;2022-08-19T07:01:17;23.60;99.90
6958;DHT22;50346;51.268;15.942;2022-08-19T07:03:42;23.70;1.00
6958;DHT22;50346;51.268;15.942;2022-08-19T07:06:10;23.80;1.00
6958;DHT22;50346;51.268;15.942;2022-08-19T07:08:37;23.80;99.90
6958;DHT22;50346;51.268;15.942;2022-08-19T07:11:11;23.80;75.30
6958;DHT22;50346;51.268;15.942;2022-08-19T07:13:38;23.90;1.00
6958;DHT22;50346;51.268;15.942;2022-08-19T07:16:09;23.90;22.10
6958;DHT22;50346;51.268;15.942;2022-08-19T07:18:35;23.90;99.90
6958;DHT22;50346;51.268;15.942;2022-08-19T07:21:23;24.00;99.90
6958;DHT22;50346;51.268;15.942;2022-08-19T07:23:50;24.10;99.90
6958;DHT22;50346;51.268;15.942;2022-08-19T07:26:23;24.20;1.00
6958;DHT22;50346;51.268;15.942;2022-08-19T07:28:49;24.20;99.90
6958;DHT22;50346;51.268;15.942;2022-08-19T07:38:40;24.50;1.00
6958;DHT22;50346;51.268;15.942;2022-08-19T07:48:26;24.70;99.90
6958;DHT22;50346;51.268;15.942;2022-08-19T07:50:58;24.70;1.00
6958;DHT22;50346;51.268;15.942;2022-08-19T07:58:21;24.90;1.00
6958;DHT22;50346;51.268;15.942;2022-08-19T08:00:49;25.00;99.90
6958;DHT22;50346;51.268;15.942;2022-08-19T08:03:17;25.10;99.90
6958;DHT22;50346;51.268;15.942;2022-08-19T08:05:43;25.20;99.90
6958;DHT22;50346;51.268;15.942;2022-08-19T08:11:14;25.30;99.90
6958;DHT22;50346;51.268;15.942;2022-08-19T08:16:07;25.50;99.90
6958;DHT22;50346;51.268;15.942;2022-08-19T08:23:26;25.60;1.00
6958;DHT22;50346;51.268;15.942;2022-08-19T08:25:54;25.60;1.00
6958;DHT22;50346;51.268;15.942;2022-08-19T08:28:20;25.60;1.00
6958;DHT22;50346;51.268;15.942;2022-08-19T08:30:47;25.60;1.00
6958;DHT22;50346;51.268;15.942;2022-08-19T08:33:21;25.70;99.90
6958;DHT22;50346;51.268;15.942;2022-08-19T08:35:47;25.70;99.90
6958;DHT22;50346;51.268;15.942;2022-08-19T08:40:44;25.90;1.00
6958;DHT22;50346;51.268;15.942;2022-08-19T08:43:49;26.00;1.00
6958;DHT22;50346;51.268;15.942;2022-08-19T08:56:29;26.50;99.90
6958;DHT22;50346;51.268;15.942;2022-08-19T09:03:59;26.90;99.90
6958;DHT22;50346;51.268;15.942;2022-08-19T09:06:44;27.00;99.90
6958;DHT22;50346;51.268;15.942;2022-08-19T09:12:04;27.20;99.90
6958;DHT22;50346;51.268;15.942;2022-08-19T09:17:09;27.30;99.90
6958;DHT22;50346;51.268;15.942;2022-08-19T09:19:54;27.30;99.90
6958;DHT22;50346;51.268;15.942;2022-08-19T09:22:20;27.30;99.90
6958;DHT22;50346;51.268;15.942;2022-08-19T09:24:48;27.30;99.90
6958;DHT22;50346;51.268;15.942;2022-08-19T09:27:14;27.30;99.90
6958;DHT22;50346;51.268;15.942;2022-08-19T09:29:40;27.30;99.90
6958;DHT22;50346;51.268;15.942;2022-08-19T09:32:05;27.30;99.90
6958;DHT22;50346;51.268;15.942;2022-08-19T09:34:32;27.30;99.90
6958;DHT22;50346;51.268;15.942;2022-08-19T09:36:58;27.40;99.90
6958;DHT22;50346;51.268;15.942;2022-08-19T09:39:25;27.50;99.90
6958;DHT22;50346;51.268;15.942;2022-08-19T09:41:51;27.50;99.90
6958;DHT22;50346;51.268;15.942;2022-08-19T09:46:48;27.70;99.90
6958;DHT22;50346;51.268;15.942;2022-08-19T09:49:14;27.70;99.90
6958;DHT22;50346;51.268;15.942;2022-08-19T09:51:39;27.70;99.90
6958;DHT22;50346;51.268;15.942;2022-08-19T09:54:05;27.80;99.90
6958;DHT22;50346;51.268;15.942;2022-08-19T09:56:32;27.80;99.90
6958;DHT22;50346;51.268;15.942;2022-08-19T09:59:02;27.70;99.90
6958;DHT22;50346;51.268;15.942;2022-08-19T10:01:30;27.60;99.90
6958;DHT22;50346;51.268;15.942;2022-08-19T10:03:58;27.60;99.90
6958;DHT22;50346;51.268;15.942;2022-08-19T10:06:26;27.50;99.90
6958;DHT22;50346;51.268;15.942;2022-08-19T10:08:55;27.50;99.90
6958;DHT22;50346;51.268;15.942;2022-08-19T10:11:24;27.50;99.90
6958;DHT22;50346;51.268;15.942;2022-08-19T10:13:50;27.50;99.90
6958;DHT22;50346;51.268;15.942;2022-08-19T10:16:20;27.60;99.90
6958;DHT22;50346;51.268;15.942;2022-08-19T10:18:46;27.70;99.90
6958;DHT22;50346;51.268;15.942;2022-08-19T10:21:18;27.60;99.90
6958;DHT22;50346;51.268;15.942;2022-08-19T10:23:47;27.60;99.90
6958;DHT22;50346;51.268;15.942;2022-08-19T10:26:18;27.60;99.90
6958;DHT22;50346;51.268;15.942;2022-08-19T10:28:44;27.60;99.90
6958;DHT22;50346;51.268;15.942;2022-08-19T10:31:16;27.70;99.90
6958;DHT22;50346;51.268;15.942;2022-08-19T10:33:42;27.70;99.90
6958;DHT22;50346;51.268;15.942;2022-08-19T10:36:11;27.60;99.90
6958;DHT22;50346;51.268;15.942;2022-08-19T10:38:37;27.70;99.90
6958;DHT22;50346;51.268;15.942;2022-08-19T10:41:23;27.70;99.90
6958;DHT22;50346;51.268;15.942;2022-08-19T10:43:56;27.70;99.90
6958;DHT22;50346;51.268;15.942;2022-08-19T10:46:24;27.70;99.90
6958;DHT22;50346;51.268;15.942;2022-08-19T10:48:51;27.80;99.90
6958;DHT22;50346;51.268;15.942;2022-08-19T10:51:17;27.90;99.90
6958;DHT22;50346;51.268;15.942;2022-08-19T10:54:02;27.90;99.90
6958;DHT22;50346;51.268;15.942;2022-08-19T10:56:28;27.80;99.90
6958;DHT22;50346;51.268;15.942;2022-08-19T10:59:13;27.70;99.90
6958;DHT22;50346;51.268;15.942;2022-08-19T11:01:40;27.70;99.90
6958;DHT22;50346;51.268;15.942;2022-08-19T11:04:06;27.70;99.90
6958;DHT22;50346;51.268;15.942;2022-08-19T11:06:36;27.80;99.90
6958;DHT22;50346;51.268;15.942;2022-08-19T11:09:03;27.90;99.90
6958;DHT22;50346;51.268;15.942;2022-08-19T11:11:30;28.00;1.00
6958;DHT22;50346;51.268;15.942;2022-08-19T11:16:23;28.20;99.90
6958;DHT22;50346;51.268;15.942;2022-08-19T11:18:53;28.20;99.90
6958;DHT22;50346;51.268;15.942;2022-08-19T11:21:34;28.20;99.90
6958;DHT22;50346;51.268;15.942;2022-08-19T11:24:03;28.20;99.90
6958;DHT22;50346;51.268;15.942;2022-08-19T11:26:30;28.30;99.90
6958;DHT22;50346;51.268;15.942;2022-08-19T11:28:57;28.40;99.90
6958;DHT22;50346;51.268;15.942;2022-08-19T11:31:28;28.40;99.90
6958;DHT22;50346;51.268;15.942;2022-08-19T11:34:00;28.50;99.90
6958;DHT22;50346;51.268;15.942;2022-08-19T11:36:27;28.50;99.90
6958;DHT22;50346;51.268;15.942;2022-08-19T11:38:53;28.40;99.90
6958;DHT22;50346;51.268;15.942;2022-08-19T11:41:20;28.20;99.90
6958;DHT22;50346;51.268;15.942;2022-08-19T11:43:48;28.10;99.90
6958;DHT22;50346;51.268;15.942;2022-08-19T11:46:16;28.10;99.90
6958;DHT22;50346;51.268;15.942;2022-08-19T11:48:42;28.00;99.90
6958;DHT22;50346;51.268;15.942;2022-08-19T11:51:14;28.10;99.90
6958;DHT22;50346;51.268;15.942;2022-08-19T11:53:40;28.00;99.90
6958;DHT22;50346;51.268;15.942;2022-08-19T11:56:06;27.90;99.90
6958;DHT22;50346;51.268;15.942;2022-08-19T11:58:33;27.80;99.90
6958;DHT22;50346;51.268;15.942;2022-08-19T12:00:59;27.90;99.90
6958;DHT22;50346;51.268;15.942;2022-08-19T12:03:25;28.00;99.90
6958;DHT22;50346;51.268;15.942;2022-08-19T12:05:50;28.00;99.90
6958;DHT22;50346;51.268;15.942;2022-08-19T12:08:17;28.10;99.90
6958;DHT22;50346;51.268;15.942;2022-08-19T12:10:43;28.10;99.90
6958;DHT22;50346;51.268;15.942;2022-08-19T12:13:10;28.30;99.90
6958;DHT22;50346;51.268;15.942;2022-08-19T12:15:39;28.50;99.90
6958;DHT22;50346;51.268;15.942;2022-08-19T12:18:08;28.80;99.90
6958;DHT22;50346;51.268;15.942;2022-08-19T12:20:36;29.00;99.90
6958;DHT22;50346;51.268;15.942;2022-08-19T12:23:03;29.20;99.90
6958;DHT22;50346;51.268;15.942;2022-08-19T12:25:29;29.30;99.90
6958;DHT22;50346;51.268;15.942;2022-08-19T12:27:56;29.40;99.90
6958;DHT22;50346;51.268;15.942;2022-08-19T12:30:21;29.50;99.90
6958;DHT22;50346;51.268;15.942;2022-08-19T12:32:47;29.40;99.60
6958;DHT22;50346;51.268;15.942;2022-08-19T12:35:13;29.40;99.00
6958;DHT22;50346;51.268;15.942;2022-08-19T12:37:39;29.40;99.70
6958;DHT22;50346;51.268;15.942;2022-08-19T12:40:10;29.40;97.60
6958;DHT22;50346;51.268;15.942;2022-08-19T12:42:38;29.40;94.90
6958;DHT22;50346;51.268;15.942;2022-08-19T12:45:07;29.50;94.50
6958;DHT22;50346;51.268;15.942;2022-08-19T12:47:33;29.40;93.90
6958;DHT22;50346;51.268;15.942;2022-08-19T12:49:58;29.50;94.30
6958;DHT22;50346;51.268;15.942;2022-08-19T12:52:25;29.50;93.50
6958;DHT22;50346;51.268;15.942;2022-08-19T12:54:54;29.60;94.20
6958;DHT22;50346;51.268;15.942;2022-08-19T12:57:20;29.60;92.60
6958;DHT22;50346;51.268;15.942;2022-08-19T12:59:46;29.70;90.70
6958;DHT22;50346;51.268;15.942;2022-08-19T13:04:37;30.10;75.90
6958;DHT22;50346;51.268;15.942;2022-08-19T13:07:07;30.30;84.60
6958;DHT22;50346;51.268;15.942;2022-08-19T13:12:00;30.60;99.90
6958;DHT22;50346;51.268;15.942;2022-08-19T13:14:33;30.50;99.90
6958;DHT22;50346;51.268;15.942;2022-08-19T13:16:58;30.40;99.90
6958;DHT22;50346;51.268;15.942;2022-08-19T13:19:24;30.40;99.90
6958;DHT22;50346;51.268;15.942;2022-08-19T13:21:51;30.50;99.90
6958;DHT22;50346;51.268;15.942;2022-08-19T13:24:17;30.50;99.90
6958;DHT22;50346;51.268;15.942;2022-08-19T13:29:09;30.60;99.90
6958;DHT22;50346;51.268;15.942;2022-08-19T13:31:53;30.70;99.90
6958;DHT22;50346;51.268;15.942;2022-08-19T13:34:37;30.60;99.90
6958;DHT22;50346;51.268;15.942;2022-08-19T13:37:04;30.50;99.90
6958;DHT22;50346;51.268;15.942;2022-08-19T13:39:31;30.40;99.90
6958;DHT22;50346;51.268;15.942;2022-08-19T13:41:58;30.20;99.90
6958;DHT22;50346;51.268;15.942;2022-08-19T13:44:25;30.10;99.90
6958;DHT22;50346;51.268;15.942;2022-08-19T13:46:51;30.00;59.30
6958;DHT22;50346;51.268;15.942;2022-08-19T13:49:19;29.70;99.90
6958;DHT22;50346;51.268;15.942;2022-08-19T13:54:12;29.20;43.60
6958;DHT22;50346;51.268;15.942;2022-08-19T13:56:42;28.90;99.90
6958;DHT22;50346;51.268;15.942;2022-08-19T14:01:35;28.50;46.30
6958;DHT22;50346;51.268;15.942;2022-08-19T14:04:02;28.50;58.80
6958;DHT22;50346;51.268;15.942;2022-08-19T14:06:27;28.40;63.50
6958;DHT22;50346;51.268;15.942;2022-08-19T14:08:53;28.30;99.90
6958;DHT22;50346;51.268;15.942;2022-08-19T14:11:19;28.20;70.90
6958;DHT22;50346;51.268;15.942;2022-08-19T14:13:44;28.20;76.60
6958;DHT22;50346;51.268;15.942;2022-08-19T14:16:11;28.10;1.00
6958;DHT22;50346;51.268;15.942;2022-08-19T14:18:38;27.90;81.30
6958;DHT22;50346;51.268;15.942;2022-08-19T14:21:04;27.80;95.80
6958;DHT22;50346;51.268;15.942;2022-08-19T14:23:31;27.80;99.90
6958;DHT22;50346;51.268;15.942;2022-08-19T14:26:08;27.70;99.70
6958;DHT22;50346;51.268;15.942;2022-08-19T14:28:34;27.60;94.80
6958;DHT22;50346;51.268;15.942;2022-08-19T14:31:00;27.60;96.90
6958;DHT22;50346;51.268;15.942;2022-08-19T14:33:25;27.60;99.90
6958;DHT22;50346;51.268;15.942;2022-08-19T14:35:51;27.50;99.90
6958;DHT22;50346;51.268;15.942;2022-08-19T14:38:18;27.60;99.90
6958;DHT22;50346;51.268;15.942;2022-08-19T14:40:44;27.60;99.90
6958;DHT22;50346;51.268;15.942;2022-08-19T14:43:10;27.60;99.90
6958;DHT22;50346;51.268;15.942;2022-08-19T14:45:37;27.60;99.90
6958;DHT22;50346;51.268;15.942;2022-08-19T14:48:07;27.60;99.90
6958;DHT22;50346;51.268;15.942;2022-08-19T14:50:34;27.60;99.90
6958;DHT22;50346;51.268;15.942;2022-08-19T14:53:02;27.50;99.90
6958;DHT22;50346;51.268;15.942;2022-08-19T14:55:29;27.60;99.90
6958;DHT22;50346;51.268;15.942;2022-08-19T14:57:55;27.60;99.90
6958;DHT22;50346;51.268;15.942;2022-08-19T15:00:21;27.70;99.90
6958;DHT22;50346;51.268;15.942;2022-08-19T15:02:48;27.70;99.90
6958;DHT22;50346;51.268;15.942;2022-08-19T15:05:14;27.80;99.90
6958;DHT22;50346;51.268;15.942;2022-08-19T15:07:40;27.90;99.90
6958;DHT22;50346;51.268;15.942;2022-08-19T15:10:07;27.90;99.90
6958;DHT22;50346;51.268;15.942;2022-08-19T15:12:37;27.90;99.90
6958;DHT22;50346;51.268;15.942;2022-08-19T15:15:10;27.80;99.90
6958;DHT22;50346;51.268;15.942;2022-08-19T15:17:38;27.70;99.90
6958;DHT22;50346;51.268;15.942;2022-08-19T15:20:06;27.70;99.90
6958;DHT22;50346;51.268;15.942;2022-08-19T15:22:32;27.70;99.90
6958;DHT22;50346;51.268;15.942;2022-08-19T15:27:24;27.50;1.00
6958;DHT22;50346;51.268;15.942;2022-08-19T15:29:49;27.50;1.00
6958;DHT22;50346;51.268;15.942;2022-08-19T15:32:15;27.50;1.00
6958;DHT22;50346;51.268;15.942;2022-08-19T15:37:07;27.40;99.90
6958;DHT22;50346;51.268;15.942;2022-08-19T15:41:59;27.20;99.90
6958;DHT22;50346;51.268;15.942;2022-08-19T15:44:25;27.40;99.90
6958;DHT22;50346;51.268;15.942;2022-08-19T15:46:51;27.20;99.90
6958;DHT22;50346;51.268;15.942;2022-08-19T15:49:18;27.20;99.90
6958;DHT22;50346;51.268;15.942;2022-08-19T15:51:47;27.20;99.90
6958;DHT22;50346;51.268;15.942;2022-08-19T15:54:16;27.20;99.90
6958;DHT22;50346;51.268;15.942;2022-08-19T15:56:42;27.30;99.90
6958;DHT22;50346;51.268;15.942;2022-08-19T15:59:26;27.40;99.90
6958;DHT22;50346;51.268;15.942;2022-08-19T16:02:11;27.90;99.90
6958;DHT22;50346;51.268;15.942;2022-08-19T16:05:16;28.70;1.00
6958;DHT22;50346;51.268;15.942;2022-08-19T16:08:00;29.20;99.90
6958;DHT22;50346;51.268;15.942;2022-08-19T16:10:26;29.60;1.00
6958;DHT22;50346;51.268;15.942;2022-08-19T16:12:52;29.60;1.00
6958;DHT22;50346;51.268;15.942;2022-08-19T16:15:17;29.20;1.00
6958;DHT22;50346;51.268;15.942;2022-08-19T16:25:06;28.00;99.90
6958;DHT22;50346;51.268;15.942;2022-08-19T16:27:33;28.00;99.90
6958;DHT22;50346;51.268;15.942;2022-08-19T16:32:25;28.70;99.90
6958;DHT22;50346;51.268;15.942;2022-08-19T16:47:06;29.10;52.90
6958;DHT22;50346;51.268;15.942;2022-08-19T16:51:57;29.00;99.90
6958;DHT22;50346;51.268;15.942;2022-08-19T16:54:23;28.80;99.90
6958;DHT22;50346;51.268;15.942;2022-08-19T16:56:50;28.60;99.90
6958;DHT22;50346;51.268;15.942;2022-08-19T17:06:36;28.40;1.00
6958;DHT22;50346;51.268;15.942;2022-08-19T17:11:30;28.30;99.90
6958;DHT22;50346;51.268;15.942;2022-08-19T17:13:59;28.10;94.00
6958;DHT22;50346;51.268;15.942;2022-08-19T17:16:27;27.90;99.90
6958;DHT22;50346;51.268;15.942;2022-08-19T17:18:55;27.50;99.90
6958;DHT22;50346;51.268;15.942;2022-08-19T17:21:24;27.80;1.00
6958;DHT22;50346;51.268;15.942;2022-08-19T17:23:53;27.80;1.00
6958;DHT22;50346;51.268;15.942;2022-08-19T17:26:20;27.70;1.00
6958;DHT22;50346;51.268;15.942;2022-08-19T17:28:48;27.60;1.00
6958;DHT22;50346;51.268;15.942;2022-08-19T17:31:14;27.50;99.90
6958;DHT22;50346;51.268;15.942;2022-08-19T17:36:07;27.10;99.90
6958;DHT22;50346;51.268;15.942;2022-08-19T17:38:33;26.90;1.00
6958;DHT22;50346;51.268;15.942;2022-08-19T17:48:30;26.20;99.90
6958;DHT22;50346;51.268;15.942;2022-08-19T17:53:24;25.80;99.90
6958;DHT22;50346;51.268;15.942;2022-08-19T17:55:50;25.70;99.90
6958;DHT22;50346;51.268;15.942;2022-08-19T18:05:42;25.20;1.00
6958;DHT22;50346;51.268;15.942;2022-08-19T18:08:08;25.20;1.00
6958;DHT22;50346;51.268;15.942;2022-08-19T18:10:36;25.10;1.00
6958;DHT22;50346;51.268;15.942;2022-08-19T18:15:29;24.90;99.90
6958;DHT22;50346;51.268;15.942;2022-08-19T18:17:55;24.90;99.90
6958;DHT22;50346;51.268;15.942;2022-08-19T18:20:21;24.80;99.90
6958;DHT22;50346;51.268;15.942;2022-08-19T18:22:48;24.80;99.90
6958;DHT22;50346;51.268;15.942;2022-08-19T18:25:17;24.70;99.90
6958;DHT22;50346;51.268;15.942;2022-08-19T18:27:44;24.70;1.00
6958;DHT22;50346;51.268;15.942;2022-08-19T18:30:11;24.60;1.00
6958;DHT22;50346;51.268;15.942;2022-08-19T18:32:37;24.60;1.00
6958;DHT22;50346;51.268;15.942;2022-08-19T18:35:08;24.60;11.00
6958;DHT22;50346;51.268;15.942;2022-08-19T18:37:39;24.50;99.90
6958;DHT22;50346;51.268;15.942;2022-08-19T18:40:08;24.50;99.90
6958;DHT22;50346;51.268;15.942;2022-08-19T18:42:52;24.50;99.90
6958;DHT22;50346;51.268;15.942;2022-08-19T18:45:47;24.50;99.90
6958;DHT22;50346;51.268;15.942;2022-08-19T18:48:31;24.40;99.90
6958;DHT22;50346;51.268;15.942;2022-08-19T18:51:16;24.40;1.00
6958;DHT22;50346;51.268;15.942;2022-08-19T18:53:44;24.40;1.00
6958;DHT22;50346;51.268;15.942;2022-08-19T18:56:12;24.30;1.00
6958;DHT22;50346;51.268;15.942;2022-08-19T18:58:39;24.30;24.40
6958;DHT22;50346;51.268;15.942;2022-08-19T19:01:09;24.30;99.90
6958;DHT22;50346;51.268;15.942;2022-08-19T19:03:37;24.30;99.90
6958;DHT22;50346;51.268;15.942;2022-08-19T19:06:07;24.20;99.90
6958;DHT22;50346;51.268;15.942;2022-08-19T19:08:33;24.20;99.90
6958;DHT22;50346;51.268;15.942;2022-08-19T19:11:00;24.20;1.00
6958;DHT22;50346;51.268;15.942;2022-08-19T19:13:32;24.20;1.00
6958;DHT22;50346;51.268;15.942;2022-08-19T19:15:58;24.20;1.00
6958;DHT22;50346;51.268;15.942;2022-08-19T19:18:27;24.20;26.50
6958;DHT22;50346;51.268;15.942;2022-08-19T19:20:53;24.10;63.20